sensor_id;sensor_type;location;lat;lon;timestamp;temperature;humidity
17348;DHT22;8791;50.876;4.342;2023-02-11T00:00:25;7.00;99.90
17348;DHT22;8791;50.876;4.342;2023-02-11T00:02:51;7.00;99.90
17348;DHT22;8791;50.876;4.342;2023-02-11T00:05:18;6.90;99.90
17348;DHT22;8791;50.876;4.342;2023-02-11T00:07:46;6.80;99.90
17348;DHT22;8791;50.876;4.342;2023-02-11T00:10:13;6.80;99.90
17348;DHT22;8791;50.876;4.342;2023-02-11T00:12:40;6.90;99.90
17348;DHT22;8791;50.876;4.342;2023-02-11T00:15:08;6.90;99.90
17348;DHT22;8791;50.876;4.342;2023-02-11T00:17:35;6.70;99.90
17348;DHT22;8791;50.876;4.342;2023-02-11T00:20:02;6.50;99.90
17348;DHT22;8791;50.876;4.342;2023-02-11T00:22:30;6.50;99.90
17348;DHT22;8791;50.876;4.342;2023-02-11T00:24:58;6.50;99.90
17348;DHT22;8791;50.876;4.342;2023-02-11T00:27:24;6.50;99.90
17348;DHT22;8791;50.876;4.342;2023-02-11T00:29:51;6.70;99.90
17348;DHT22;8791;50.876;4.342;2023-02-11T00:32:18;6.60;99.90
17348;DHT22;8791;50.876;4.342;2023-02-11T00:34:45;6.80;99.90
17348;DHT22;8791;50.876;4.342;2023-02-11T00:37:12;6.70;99.90
17348;DHT22;8791;50.876;4.342;2023-02-11T00:39:39;6.70;99.90
17348;DHT22;8791;50.876;4.342;2023-02-11T00:42:15;6.70;99.90
17348;DHT22;8791;50.876;4.342;2023-02-11T00:44:42;6.70;99.90
17348;DHT22;8791;50.876;4.342;2023-02-11T00:47:09;6.70;99.90
17348;DHT22;8791;50.876;4.342;2023-02-11T00:49:36;6.70;99.90
17348;DHT22;8791;50.876;4.342;2023-02-11T00:52:04;6.80;99.90
17348;DHT22;8791;50.876;4.342;2023-02-11T00:54:31;6.80;99.90
17348;DHT22;8791;50.876;4.342;2023-02-11T00:56:58;6.80;99.90
17348;DHT22;8791;50.876;4.342;2023-02-11T00:59:26;6.80;99.90
17348;DHT22;8791;50.876;4.342;2023-02-11T01:01:53;6.70;99.90
17348;DHT22;8791;50.876;4.342;2023-02-11T01:04:20;6.50;99.90
17348;DHT22;8791;50.876;4.342;2023-02-11T01:06:47;6.40;99.90
17348;DHT22;8791;50.876;4.342;2023-02-11T01:09:14;6.50;99.90
17348;DHT22;8791;50.876;4.342;2023-02-11T01:11:41;6.50;99.90
17348;DHT22;8791;50.876;4.342;2023-02-11T01:14:08;6.40;99.90
17348;DHT22;8791;50.876;4.342;2023-02-11T01:16:36;6.50;99.90
17348;DHT22;8791;50.876;4.342;2023-02-11T01:19:03;6.30;99.90
17348;DHT22;8791;50.876;4.342;2023-02-11T01:21:30;6.30;99.90
17348;DHT22;8791;50.876;4.342;2023-02-11T01:23:56;6.50;99.90
17348;DHT22;8791;50.876;4.342;2023-02-11T01:26:23;6.70;99.90
17348;DHT22;8791;50.876;4.342;2023-02-11T01:28:50;6.50;99.90
17348;DHT22;8791;50.876;4.342;2023-02-11T01:31:17;6.40;99.90
17348;DHT22;8791;50.876;4.342;2023-02-11T01:33:45;6.30;99.90
17348;DHT22;8791;50.876;4.342;2023-02-11T01:36:12;6.40;99.90
17348;DHT22;8791;50.876;4.342;2023-02-11T01:38:39;6.50;99.90
17348;DHT22;8791;50.876;4.342;2023-02-11T01:41:07;6.60;99.90
17348;DHT22;8791;50.876;4.342;2023-02-11T01:43:38;6.60;99.90
17348;DHT22;8791;50.876;4.342;2023-02-11T01:46:16;6.60;99.90
17348;DHT22;8791;50.876;4.342;2023-02-11T01:48:49;6.60;99.90
17348;DHT22;8791;50.876;4.342;2023-02-11T01:51:19;6.60;99.90
17348;DHT22;8791;50.876;4.342;2023-02-11T01:53:47;6.50;99.90
17348;DHT22;8791;50.876;4.342;2023-02-11T01:56:33;6.50;99.90
17348;DHT22;8791;50.876;4.342;2023-02-11T01:59:23;6.50;99.90
17348;DHT22;8791;50.876;4.342;2023-02-11T02:01:55;6.70;99.90
17348;DHT22;8791;50.876;4.342;2023-02-11T02:04:28;6.70;99.90
17348;DHT22;8791;50.876;4.342;2023-02-11T02:07:01;6.80;99.90
17348;DHT22;8791;50.876;4.342;2023-02-11T02:09:32;6.90;99.90
17348;DHT22;8791;50.876;4.342;2023-02-11T02:12:02;6.90;99.90
17348;DHT22;8791;50.876;4.342;2023-02-11T02:14:29;6.90;99.90
17348;DHT22;8791;50.876;4.342;2023-02-11T02:16:56;6.90;99.90
17348;DHT22;8791;50.876;4.342;2023-02-11T02:28:37;7.10;99.90
17348;DHT22;8791;50.876;4.342;2023-02-11T02:31:28;6.80;99.90
17348;DHT22;8791;50.876;4.342;2023-02-11T02:34:02;7.00;99.90
17348;DHT22;8791;50.876;4.342;2023-02-11T02:36:36;7.10;99.90
17348;DHT22;8791;50.876;4.342;2023-02-11T02:39:09;7.00;99.90
17348;DHT22;8791;50.876;4.342;2023-02-11T02:41:38;7.00;99.90
17348;DHT22;8791;50.876;4.342;2023-02-11T02:44:06;7.00;99.90
17348;DHT22;8791;50.876;4.342;2023-02-11T02:46:35;7.00;99.90
17348;DHT22;8791;50.876;4.342;2023-02-11T02:49:05;6.90;99.90
17348;DHT22;8791;50.876;4.342;2023-02-11T02:52:01;6.90;99.90
17348;DHT22;8791;50.876;4.342;2023-02-11T02:54:48;6.90;99.90
17348;DHT22;8791;50.876;4.342;2023-02-11T02:57:27;6.90;99.90
17348;DHT22;8791;50.876;4.342;2023-02-11T03:00:09;6.80;99.90
17348;DHT22;8791;50.876;4.342;2023-02-11T03:02:44;7.00;99.90
17348;DHT22;8791;50.876;4.342;2023-02-11T03:05:17;7.00;99.90
17348;DHT22;8791;50.876;4.342;2023-02-11T03:07:50;7.00;99.90
17348;DHT22;8791;50.876;4.342;2023-02-11T03:10:20;7.00;99.90
17348;DHT22;8791;50.876;4.342;2023-02-11T03:12:49;7.00;99.90
17348;DHT22;8791;50.876;4.342;2023-02-11T03:15:18;7.00;99.90
17348;DHT22;8791;50.876;4.342;2023-02-11T03:17:48;6.80;99.90
17348;DHT22;8791;50.876;4.342;2023-02-11T03:20:20;6.80;99.90
17348;DHT22;8791;50.876;4.342;2023-02-11T03:22:49;6.90;99.90
17348;DHT22;8791;50.876;4.342;2023-02-11T03:25:19;6.70;99.90
17348;DHT22;8791;50.876;4.342;2023-02-11T03:27:53;6.70;99.90
17348;DHT22;8791;50.876;4.342;2023-02-11T03:30:25;6.80;99.90
17348;DHT22;8791;50.876;4.342;2023-02-11T03:32:58;6.80;99.90
17348;DHT22;8791;50.876;4.342;2023-02-11T03:35:31;6.90;99.90
17348;DHT22;8791;50.876;4.342;2023-02-11T03:38:04;6.90;99.90
17348;DHT22;8791;50.876;4.342;2023-02-11T03:40:36;6.90;99.90
17348;DHT22;8791;50.876;4.342;2023-02-11T03:43:08;6.90;99.90
17348;DHT22;8791;50.876;4.342;2023-02-11T03:45:37;7.00;99.90
17348;DHT22;8791;50.876;4.342;2023-02-11T03:48:07;7.20;99.90
17348;DHT22;8791;50.876;4.342;2023-02-11T03:50:39;7.10;99.90
17348;DHT22;8791;50.876;4.342;2023-02-11T03:53:07;6.90;99.90
17348;DHT22;8791;50.876;4.342;2023-02-11T03:55:37;6.90;99.90
17348;DHT22;8791;50.876;4.342;2023-02-11T03:58:05;6.90;99.90
17348;DHT22;8791;50.876;4.342;2023-02-11T04:00:34;7.00;99.90
17348;DHT22;8791;50.876;4.342;2023-02-11T04:03:01;7.00;99.90
17348;DHT22;8791;50.876;4.342;2023-02-11T04:05:28;6.90;99.90
17348;DHT22;8791;50.876;4.342;2023-02-11T04:07:56;6.90;99.90
17348;DHT22;8791;50.876;4.342;2023-02-11T04:10:23;7.00;99.90
17348;DHT22;8791;50.876;4.342;2023-02-11T04:12:49;7.00;99.90
17348;DHT22;8791;50.876;4.342;2023-02-11T04:15:16;7.10;99.90
17348;DHT22;8791;50.876;4.342;2023-02-11T04:17:43;7.20;99.90
17348;DHT22;8791;50.876;4.342;2023-02-11T04:20:11;7.20;99.90
17348;DHT22;8791;50.876;4.342;2023-02-11T04:22:37;7.20;99.90
17348;DHT22;8791;50.876;4.342;2023-02-11T04:25:07;7.20;99.90
17348;DHT22;8791;50.876;4.342;2023-02-11T04:27:34;7.10;99.90
17348;DHT22;8791;50.876;4.342;2023-02-11T04:30:03;7.10;99.90
17348;DHT22;8791;50.876;4.342;2023-02-11T04:32:30;7.10;99.90
17348;DHT22;8791;50.876;4.342;2023-02-11T04:34:57;7.30;99.90
17348;DHT22;8791;50.876;4.342;2023-02-11T04:37:24;7.40;99.90
17348;DHT22;8791;50.876;4.342;2023-02-11T04:39:50;7.30;99.90
17348;DHT22;8791;50.876;4.342;2023-02-11T04:42:19;7.50;99.90
17348;DHT22;8791;50.876;4.342;2023-02-11T04:44:45;7.50;99.90
17348;DHT22;8791;50.876;4.342;2023-02-11T04:47:12;7.50;99.90
17348;DHT22;8791;50.876;4.342;2023-02-11T04:49:40;7.70;99.90
17348;DHT22;8791;50.876;4.342;2023-02-11T04:52:07;7.80;99.90
17348;DHT22;8791;50.876;4.342;2023-02-11T04:54:34;7.80;99.90
17348;DHT22;8791;50.876;4.342;2023-02-11T04:57:01;7.80;99.90
17348;DHT22;8791;50.876;4.342;2023-02-11T04:59:29;7.80;99.90
17348;DHT22;8791;50.876;4.342;2023-02-11T05:01:56;7.80;99.90
17348;DHT22;8791;50.876;4.342;2023-02-11T05:04:22;7.80;99.90
17348;DHT22;8791;50.876;4.342;2023-02-11T05:06:49;7.70;99.90
17348;DHT22;8791;50.876;4.342;2023-02-11T05:09:16;7.50;99.90
17348;DHT22;8791;50.876;4.342;2023-02-11T05:11:43;7.40;99.90
17348;DHT22;8791;50.876;4.342;2023-02-11T05:14:10;7.20;99.90
17348;DHT22;8791;50.876;4.342;2023-02-11T05:16:38;7.20;99.90
17348;DHT22;8791;50.876;4.342;2023-02-11T05:19:05;7.10;99.90
17348;DHT22;8791;50.876;4.342;2023-02-11T05:21:32;7.20;99.90
17348;DHT22;8791;50.876;4.342;2023-02-11T05:23:58;7.20;99.90
17348;DHT22;8791;50.876;4.342;2023-02-11T05:26:25;7.10;99.90
17348;DHT22;8791;50.876;4.342;2023-02-11T05:28:52;7.00;99.90
17348;DHT22;8791;50.876;4.342;2023-02-11T05:31:19;7.10;99.90
17348;DHT22;8791;50.876;4.342;2023-02-11T05:33:47;7.30;99.90
17348;DHT22;8791;50.876;4.342;2023-02-11T05:36:14;7.30;99.90
17348;DHT22;8791;50.876;4.342;2023-02-11T05:38:41;7.40;99.90
17348;DHT22;8791;50.876;4.342;2023-02-11T05:41:09;7.40;99.90
17348;DHT22;8791;50.876;4.342;2023-02-11T05:43:36;7.30;99.90
17348;DHT22;8791;50.876;4.342;2023-02-11T05:46:03;7.20;99.90
17348;DHT22;8791;50.876;4.342;2023-02-11T05:48:31;7.20;99.90
17348;DHT22;8791;50.876;4.342;2023-02-11T05:50:59;7.20;99.90
17348;DHT22;8791;50.876;4.342;2023-02-11T05:53:26;7.20;99.90
17348;DHT22;8791;50.876;4.342;2023-02-11T05:55:53;7.00;99.90
17348;DHT22;8791;50.876;4.342;2023-02-11T05:58:20;7.10;99.90
17348;DHT22;8791;50.876;4.342;2023-02-11T06:00:47;7.10;99.90
17348;DHT22;8791;50.876;4.342;2023-02-11T06:03:13;7.10;99.90
17348;DHT22;8791;50.876;4.342;2023-02-11T06:05:41;7.20;99.90
17348;DHT22;8791;50.876;4.342;2023-02-11T06:08:09;7.30;99.90
17348;DHT22;8791;50.876;4.342;2023-02-11T06:10:37;7.40;99.90
17348;DHT22;8791;50.876;4.342;2023-02-11T06:13:04;7.30;99.90
17348;DHT22;8791;50.876;4.342;2023-02-11T06:15:31;7.30;99.90
17348;DHT22;8791;50.876;4.342;2023-02-11T06:17:57;7.40;99.90
17348;DHT22;8791;50.876;4.342;2023-02-11T06:20:24;7.50;99.90
17348;DHT22;8791;50.876;4.342;2023-02-11T06:22:51;7.50;99.90
17348;DHT22;8791;50.876;4.342;2023-02-11T06:25:19;7.40;99.90
17348;DHT22;8791;50.876;4.342;2023-02-11T06:27:46;7.50;99.90
17348;DHT22;8791;50.876;4.342;2023-02-11T06:30:13;7.70;99.90
17348;DHT22;8791;50.876;4.342;2023-02-11T06:32:40;7.40;99.90
17348;DHT22;8791;50.876;4.342;2023-02-11T06:35:07;7.30;99.90
17348;DHT22;8791;50.876;4.342;2023-02-11T06:37:34;7.30;99.90
17348;DHT22;8791;50.876;4.342;2023-02-11T06:40:01;7.30;99.90
17348;DHT22;8791;50.876;4.342;2023-02-11T06:42:29;7.20;99.90
17348;DHT22;8791;50.876;4.342;2023-02-11T06:44:56;7.30;99.90
17348;DHT22;8791;50.876;4.342;2023-02-11T06:47:23;7.60;99.90
17348;DHT22;8791;50.876;4.342;2023-02-11T06:49:49;7.70;99.90
17348;DHT22;8791;50.876;4.342;2023-02-11T06:52:16;7.70;99.90
17348;DHT22;8791;50.876;4.342;2023-02-11T06:54:43;7.80;99.90
17348;DHT22;8791;50.876;4.342;2023-02-11T06:57:11;7.80;99.90
17348;DHT22;8791;50.876;4.342;2023-02-11T06:59:39;7.80;99.90
17348;DHT22;8791;50.876;4.342;2023-02-11T07:02:08;7.60;99.90
17348;DHT22;8791;50.876;4.342;2023-02-11T07:04:34;7.60;99.90
17348;DHT22;8791;50.876;4.342;2023-02-11T07:07:01;7.60;99.90
17348;DHT22;8791;50.876;4.342;2023-02-11T07:09:28;7.60;99.90
17348;DHT22;8791;50.876;4.342;2023-02-11T07:11:55;7.50;99.90
17348;DHT22;8791;50.876;4.342;2023-02-11T07:14:22;7.60;99.90
17348;DHT22;8791;50.876;4.342;2023-02-11T07:16:50;7.80;99.90
17348;DHT22;8791;50.876;4.342;2023-02-11T07:19:17;7.70;99.90
17348;DHT22;8791;50.876;4.342;2023-02-11T07:21:43;7.50;99.90
17348;DHT22;8791;50.876;4.342;2023-02-11T07:24:11;7.60;99.90
17348;DHT22;8791;50.876;4.342;2023-02-11T07:26:38;7.60;99.90
17348;DHT22;8791;50.876;4.342;2023-02-11T07:29:05;7.60;99.90
17348;DHT22;8791;50.876;4.342;2023-02-11T07:31:32;7.70;99.90
17348;DHT22;8791;50.876;4.342;2023-02-11T07:34:00;7.70;99.90
17348;DHT22;8791;50.876;4.342;2023-02-11T07:36:29;7.90;99.90
17348;DHT22;8791;50.876;4.342;2023-02-11T07:38:56;7.80;99.90
17348;DHT22;8791;50.876;4.342;2023-02-11T07:41:24;7.60;99.90
17348;DHT22;8791;50.876;4.342;2023-02-11T07:43:52;7.70;99.90
17348;DHT22;8791;50.876;4.342;2023-02-11T07:46:20;7.80;99.90
17348;DHT22;8791;50.876;4.342;2023-02-11T07:48:47;7.80;99.90
17348;DHT22;8791;50.876;4.342;2023-02-11T07:51:18;7.90;99.90
17348;DHT22;8791;50.876;4.342;2023-02-11T07:53:46;8.00;99.90
17348;DHT22;8791;50.876;4.342;2023-02-11T07:56:15;8.10;99.90
17348;DHT22;8791;50.876;4.342;2023-02-11T07:58:42;8.20;99.90
17348;DHT22;8791;50.876;4.342;2023-02-11T08:01:11;8.00;99.90
17348;DHT22;8791;50.876;4.342;2023-02-11T08:03:39;7.90;99.90
17348;DHT22;8791;50.876;4.342;2023-02-11T08:06:09;7.70;99.90
17348;DHT22;8791;50.876;4.342;2023-02-11T08:08:38;7.60;99.90
17348;DHT22;8791;50.876;4.342;2023-02-11T08:11:06;7.60;99.90
17348;DHT22;8791;50.876;4.342;2023-02-11T08:13:33;7.90;99.90
17348;DHT22;8791;50.876;4.342;2023-02-11T08:16:00;8.00;99.90
17348;DHT22;8791;50.876;4.342;2023-02-11T08:18:27;8.10;99.90
17348;DHT22;8791;50.876;4.342;2023-02-11T08:20:53;8.10;99.90
17348;DHT22;8791;50.876;4.342;2023-02-11T08:23:20;8.00;99.90
17348;DHT22;8791;50.876;4.342;2023-02-11T08:25:49;8.00;99.90
17348;DHT22;8791;50.876;4.342;2023-02-11T08:28:15;7.90;99.90
17348;DHT22;8791;50.876;4.342;2023-02-11T08:30:42;7.80;99.90
17348;DHT22;8791;50.876;4.342;2023-02-11T08:33:09;7.80;99.90
17348;DHT22;8791;50.876;4.342;2023-02-11T08:35:36;8.00;99.90
17348;DHT22;8791;50.876;4.342;2023-02-11T08:38:04;8.00;99.90
17348;DHT22;8791;50.876;4.342;2023-02-11T08:40:31;8.10;99.90
17348;DHT22;8791;50.876;4.342;2023-02-11T08:42:59;8.10;99.90
17348;DHT22;8791;50.876;4.342;2023-02-11T08:45:26;8.00;99.90
17348;DHT22;8791;50.876;4.342;2023-02-11T08:47:53;8.10;99.90
17348;DHT22;8791;50.876;4.342;2023-02-11T08:50:20;8.10;99.90
17348;DHT22;8791;50.876;4.342;2023-02-11T08:52:46;8.00;99.90
17348;DHT22;8791;50.876;4.342;2023-02-11T08:55:13;7.90;99.90
17348;DHT22;8791;50.876;4.342;2023-02-11T08:57:40;7.90;99.90
17348;DHT22;8791;50.876;4.342;2023-02-11T09:00:09;8.00;99.90
17348;DHT22;8791;50.876;4.342;2023-02-11T09:02:36;8.00;99.90
17348;DHT22;8791;50.876;4.342;2023-02-11T09:05:04;8.30;99.90
17348;DHT22;8791;50.876;4.342;2023-02-11T09:07:31;8.30;99.90
17348;DHT22;8791;50.876;4.342;2023-02-11T09:09:58;8.40;99.90
17348;DHT22;8791;50.876;4.342;2023-02-11T09:12:25;8.50;99.90
17348;DHT22;8791;50.876;4.342;2023-02-11T09:14:52;8.60;99.90
17348;DHT22;8791;50.876;4.342;2023-02-11T09:17:20;8.50;99.90
17348;DHT22;8791;50.876;4.342;2023-02-11T09:19:47;8.40;99.90
17348;DHT22;8791;50.876;4.342;2023-02-11T09:22:13;8.20;99.90
17348;DHT22;8791;50.876;4.342;2023-02-11T09:24:41;8.20;99.90
17348;DHT22;8791;50.876;4.342;2023-02-11T09:27:08;8.20;99.90
17348;DHT22;8791;50.876;4.342;2023-02-11T09:29:34;8.30;99.90
17348;DHT22;8791;50.876;4.342;2023-02-11T09:32:01;8.40;99.90
17348;DHT22;8791;50.876;4.342;2023-02-11T09:34:30;8.20;99.90
17348;DHT22;8791;50.876;4.342;2023-02-11T09:36:56;8.30;99.90
17348;DHT22;8791;50.876;4.342;2023-02-11T09:39:23;8.40;99.90
17348;DHT22;8791;50.876;4.342;2023-02-11T09:42:04;8.60;99.90
17348;DHT22;8791;50.876;4.342;2023-02-11T09:44:35;8.60;99.90
17348;DHT22;8791;50.876;4.342;2023-02-11T09:47:04;8.70;99.90
17348;DHT22;8791;50.876;4.342;2023-02-11T09:49:38;8.60;99.90
17348;DHT22;8791;50.876;4.342;2023-02-11T09:52:12;8.70;99.90
17348;DHT22;8791;50.876;4.342;2023-02-11T09:54:48;8.70;99.90
17348;DHT22;8791;50.876;4.342;2023-02-11T09:57:18;8.60;99.90
17348;DHT22;8791;50.876;4.342;2023-02-11T09:59:45;8.80;99.90
17348;DHT22;8791;50.876;4.342;2023-02-11T10:02:18;8.70;99.90
17348;DHT22;8791;50.876;4.342;2023-02-11T10:05:02;8.70;99.90
17348;DHT22;8791;50.876;4.342;2023-02-11T10:07:39;8.70;99.90
17348;DHT22;8791;50.876;4.342;2023-02-11T10:10:15;8.70;99.90
17348;DHT22;8791;50.876;4.342;2023-02-11T10:12:58;8.70;99.90
17348;DHT22;8791;50.876;4.342;2023-02-11T10:15:36;8.70;99.90
17348;DHT22;8791;50.876;4.342;2023-02-11T10:18:28;8.90;99.90
17348;DHT22;8791;50.876;4.342;2023-02-11T10:21:06;9.20;99.90
17348;DHT22;8791;50.876;4.342;2023-02-11T10:23:40;9.10;99.90
17348;DHT22;8791;50.876;4.342;2023-02-11T10:26:12;9.20;99.90
17348;DHT22;8791;50.876;4.342;2023-02-11T10:28:42;9.40;99.90
17348;DHT22;8791;50.876;4.342;2023-02-11T10:31:13;9.40;99.90
17348;DHT22;8791;50.876;4.342;2023-02-11T10:33:45;9.30;99.90
17348;DHT22;8791;50.876;4.342;2023-02-11T10:36:16;9.20;99.90
17348;DHT22;8791;50.876;4.342;2023-02-11T10:38:43;9.20;99.90
17348;DHT22;8791;50.876;4.342;2023-02-11T10:41:14;9.40;99.90
17348;DHT22;8791;50.876;4.342;2023-02-11T10:43:42;9.20;99.90
17348;DHT22;8791;50.876;4.342;2023-02-11T10:46:14;9.00;99.90
17348;DHT22;8791;50.876;4.342;2023-02-11T10:48:45;9.00;99.90
17348;DHT22;8791;50.876;4.342;2023-02-11T10:51:20;9.00;99.90
17348;DHT22;8791;50.876;4.342;2023-02-11T10:53:48;9.10;99.90
17348;DHT22;8791;50.876;4.342;2023-02-11T10:56:22;8.80;99.90
17348;DHT22;8791;50.876;4.342;2023-02-11T10:58:58;8.90;99.90
17348;DHT22;8791;50.876;4.342;2023-02-11T11:01:40;8.90;99.90
17348;DHT22;8791;50.876;4.342;2023-02-11T11:04:32;8.90;99.90
17348;DHT22;8791;50.876;4.342;2023-02-11T11:07:12;9.00;99.90
17348;DHT22;8791;50.876;4.342;2023-02-11T11:09:48;9.10;99.90
17348;DHT22;8791;50.876;4.342;2023-02-11T11:12:31;9.10;99.90
17348;DHT22;8791;50.876;4.342;2023-02-11T11:15:01;9.10;99.90
17348;DHT22;8791;50.876;4.342;2023-02-11T11:17:34;9.30;99.90
17348;DHT22;8791;50.876;4.342;2023-02-11T11:20:29;9.30;99.90
17348;DHT22;8791;50.876;4.342;2023-02-11T11:23:14;9.40;99.90
17348;DHT22;8791;50.876;4.342;2023-02-11T11:25:45;9.40;99.90
17348;DHT22;8791;50.876;4.342;2023-02-11T11:28:25;9.40;99.90
17348;DHT22;8791;50.876;4.342;2023-02-11T11:30:54;9.50;99.90
17348;DHT22;8791;50.876;4.342;2023-02-11T11:33:25;9.60;99.90
17348;DHT22;8791;50.876;4.342;2023-02-11T11:35:59;9.40;99.90
17348;DHT22;8791;50.876;4.342;2023-02-11T11:38:28;9.40;99.90
17348;DHT22;8791;50.876;4.342;2023-02-11T11:41:19;9.50;99.90
17348;DHT22;8791;50.876;4.342;2023-02-11T11:44:22;9.50;99.90
17348;DHT22;8791;50.876;4.342;2023-02-11T11:47:05;9.50;99.90
17348;DHT22;8791;50.876;4.342;2023-02-11T11:49:35;9.60;99.90
17348;DHT22;8791;50.876;4.342;2023-02-11T11:52:10;9.70;99.90
17348;DHT22;8791;50.876;4.342;2023-02-11T11:54:46;9.70;99.90
17348;DHT22;8791;50.876;4.342;2023-02-11T11:57:18;9.60;99.90
17348;DHT22;8791;50.876;4.342;2023-02-11T11:59:47;9.80;99.90
17348;DHT22;8791;50.876;4.342;2023-02-11T12:02:39;9.80;99.90
17348;DHT22;8791;50.876;4.342;2023-02-11T12:05:10;9.50;99.90
17348;DHT22;8791;50.876;4.342;2023-02-11T12:07:50;9.40;99.90
17348;DHT22;8791;50.876;4.342;2023-02-11T12:10:39;9.20;99.90
17348;DHT22;8791;50.876;4.342;2023-02-11T12:13:16;9.20;99.90
17348;DHT22;8791;50.876;4.342;2023-02-11T12:15:54;9.40;99.90
17348;DHT22;8791;50.876;4.342;2023-02-11T12:18:34;9.50;99.90
17348;DHT22;8791;50.876;4.342;2023-02-11T12:21:27;9.50;99.90
17348;DHT22;8791;50.876;4.342;2023-02-11T12:24:08;9.50;99.90
17348;DHT22;8791;50.876;4.342;2023-02-11T12:26:44;9.60;99.90
17348;DHT22;8791;50.876;4.342;2023-02-11T12:29:21;9.50;99.90
17348;DHT22;8791;50.876;4.342;2023-02-11T12:32:05;9.40;99.90
17348;DHT22;8791;50.876;4.342;2023-02-11T12:34:41;9.40;99.90
17348;DHT22;8791;50.876;4.342;2023-02-11T12:37:20;9.40;99.90
17348;DHT22;8791;50.876;4.342;2023-02-11T12:39:52;9.40;99.90
17348;DHT22;8791;50.876;4.342;2023-02-11T12:42:44;9.50;99.90
17348;DHT22;8791;50.876;4.342;2023-02-11T12:45:48;9.50;99.90
17348;DHT22;8791;50.876;4.342;2023-02-11T12:48:30;9.80;99.90
17348;DHT22;8791;50.876;4.342;2023-02-11T12:51:09;9.80;99.90
17348;DHT22;8791;50.876;4.342;2023-02-11T12:53:54;9.90;99.90
17348;DHT22;8791;50.876;4.342;2023-02-11T12:56:34;9.80;99.90
17348;DHT22;8791;50.876;4.342;2023-02-11T12:59:05;10.00;99.90
17348;DHT22;8791;50.876;4.342;2023-02-11T13:01:38;10.10;99.90
17348;DHT22;8791;50.876;4.342;2023-02-11T13:04:10;10.10;99.90
17348;DHT22;8791;50.876;4.342;2023-02-11T13:06:43;9.90;99.90
17348;DHT22;8791;50.876;4.342;2023-02-11T13:09:15;10.00;99.90
17348;DHT22;8791;50.876;4.342;2023-02-11T13:11:46;10.20;99.90
17348;DHT22;8791;50.876;4.342;2023-02-11T13:14:22;10.20;99.90
17348;DHT22;8791;50.876;4.342;2023-02-11T13:16:50;10.10;99.90
17348;DHT22;8791;50.876;4.342;2023-02-11T13:19:23;10.20;99.90
17348;DHT22;8791;50.876;4.342;2023-02-11T13:22:01;10.40;99.90
17348;DHT22;8791;50.876;4.342;2023-02-11T13:24:38;10.30;99.90
17348;DHT22;8791;50.876;4.342;2023-02-11T13:27:19;10.30;99.90
17348;DHT22;8791;50.876;4.342;2023-02-11T13:30:19;10.30;99.90
17348;DHT22;8791;50.876;4.342;2023-02-11T13:33:05;10.30;99.90
17348;DHT22;8791;50.876;4.342;2023-02-11T13:35:34;10.40;99.90
17348;DHT22;8791;50.876;4.342;2023-02-11T13:38:03;10.60;99.90
17348;DHT22;8791;50.876;4.342;2023-02-11T13:40:33;10.60;99.90
17348;DHT22;8791;50.876;4.342;2023-02-11T13:43:02;10.60;99.90
17348;DHT22;8791;50.876;4.342;2023-02-11T13:45:33;10.50;99.90
17348;DHT22;8791;50.876;4.342;2023-02-11T13:48:03;10.40;99.90
17348;DHT22;8791;50.876;4.342;2023-02-11T13:50:35;10.20;99.90
17348;DHT22;8791;50.876;4.342;2023-02-11T13:53:04;10.20;99.90
17348;DHT22;8791;50.876;4.342;2023-02-11T13:55:32;10.10;99.90
17348;DHT22;8791;50.876;4.342;2023-02-11T13:58:16;10.00;99.90
17348;DHT22;8791;50.876;4.342;2023-02-11T14:00:46;10.00;99.90
17348;DHT22;8791;50.876;4.342;2023-02-11T14:03:41;10.00;99.90
17348;DHT22;8791;50.876;4.342;2023-02-11T14:09:59;10.00;99.90
17348;DHT22;8791;50.876;4.342;2023-02-11T14:12:33;9.90;99.90
17348;DHT22;8791;50.876;4.342;2023-02-11T14:15:16;10.20;99.90
17348;DHT22;8791;50.876;4.342;2023-02-11T14:17:45;10.40;99.90
17348;DHT22;8791;50.876;4.342;2023-02-11T14:20:45;10.10;99.90
17348;DHT22;8791;50.876;4.342;2023-02-11T14:23:24;10.20;99.90
17348;DHT22;8791;50.876;4.342;2023-02-11T14:26:21;10.30;99.90
17348;DHT22;8791;50.876;4.342;2023-02-11T14:28:55;10.30;99.90
17348;DHT22;8791;50.876;4.342;2023-02-11T14:31:26;10.40;99.90
17348;DHT22;8791;50.876;4.342;2023-02-11T14:34:13;10.40;99.90
17348;DHT22;8791;50.876;4.342;2023-02-11T14:37:15;10.40;99.90
17348;DHT22;8791;50.876;4.342;2023-02-11T14:39:54;10.40;99.90
17348;DHT22;8791;50.876;4.342;2023-02-11T14:42:24;10.60;99.90
17348;DHT22;8791;50.876;4.342;2023-02-11T14:44:54;10.60;99.90
17348;DHT22;8791;50.876;4.342;2023-02-11T14:47:26;10.50;99.90
17348;DHT22;8791;50.876;4.342;2023-02-11T14:49:55;10.50;99.90
17348;DHT22;8791;50.876;4.342;2023-02-11T14:52:26;10.50;99.90
17348;DHT22;8791;50.876;4.342;2023-02-11T14:55:14;10.40;99.90
17348;DHT22;8791;50.876;4.342;2023-02-11T14:57:41;10.60;99.90
17348;DHT22;8791;50.876;4.342;2023-02-11T15:00:16;10.40;99.90
17348;DHT22;8791;50.876;4.342;2023-02-11T15:02:46;10.50;99.90
17348;DHT22;8791;50.876;4.342;2023-02-11T15:05:17;10.60;99.90
17348;DHT22;8791;50.876;4.342;2023-02-11T15:07:46;10.50;99.90
17348;DHT22;8791;50.876;4.342;2023-02-11T15:10:20;10.40;99.90
17348;DHT22;8791;50.876;4.342;2023-02-11T15:12:48;10.50;99.90
17348;DHT22;8791;50.876;4.342;2023-02-11T15:15:15;10.40;99.90
17348;DHT22;8791;50.876;4.342;2023-02-11T15:17:43;10.50;99.90
17348;DHT22;8791;50.876;4.342;2023-02-11T15:20:19;10.50;99.90
17348;DHT22;8791;50.876;4.342;2023-02-11T15:22:53;10.40;99.90
17348;DHT22;8791;50.876;4.342;2023-02-11T15:25:20;10.50;99.90
17348;DHT22;8791;50.876;4.342;2023-02-11T15:27:49;10.20;99.90
17348;DHT22;8791;50.876;4.342;2023-02-11T15:30:25;10.20;99.90
17348;DHT22;8791;50.876;4.342;2023-02-11T15:32:53;10.30;99.90
17348;DHT22;8791;50.876;4.342;2023-02-11T15:35:25;10.40;99.90
17348;DHT22;8791;50.876;4.342;2023-02-11T15:37:53;10.30;99.90
17348;DHT22;8791;50.876;4.342;2023-02-11T15:40:22;10.20;99.90
17348;DHT22;8791;50.876;4.342;2023-02-11T15:42:54;10.40;99.90
17348;DHT22;8791;50.876;4.342;2023-02-11T15:45:23;10.40;99.90
17348;DHT22;8791;50.876;4.342;2023-02-11T15:47:55;10.50;99.90
17348;DHT22;8791;50.876;4.342;2023-02-11T15:50:26;10.50;99.90
17348;DHT22;8791;50.876;4.342;2023-02-11T15:52:55;10.60;99.90
17348;DHT22;8791;50.876;4.342;2023-02-11T15:55:23;10.60;99.90
17348;DHT22;8791;50.876;4.342;2023-02-11T15:57:53;10.70;99.90
17348;DHT22;8791;50.876;4.342;2023-02-11T16:00:23;10.80;99.90
17348;DHT22;8791;50.876;4.342;2023-02-11T16:02:54;10.80;99.90
17348;DHT22;8791;50.876;4.342;2023-02-11T16:05:28;10.70;99.90
17348;DHT22;8791;50.876;4.342;2023-02-11T16:07:56;10.80;99.90
17348;DHT22;8791;50.876;4.342;2023-02-11T16:10:25;10.70;99.90
17348;DHT22;8791;50.876;4.342;2023-02-11T16:12:55;10.60;99.90
17348;DHT22;8791;50.876;4.342;2023-02-11T16:15:42;10.70;99.90
17348;DHT22;8791;50.876;4.342;2023-02-11T16:18:18;10.70;99.90
17348;DHT22;8791;50.876;4.342;2023-02-11T16:20:47;10.80;99.90
17348;DHT22;8791;50.876;4.342;2023-02-11T16:23:21;10.70;99.90
17348;DHT22;8791;50.876;4.342;2023-02-11T16:25:49;10.60;99.90
17348;DHT22;8791;50.876;4.342;2023-02-11T16:28:17;10.70;99.90
17348;DHT22;8791;50.876;4.342;2023-02-11T16:30:44;10.60;99.90
17348;DHT22;8791;50.876;4.342;2023-02-11T16:33:11;10.50;99.90
17348;DHT22;8791;50.876;4.342;2023-02-11T16:35:38;10.50;99.90